Pine Canyon, Utah
Current Conditions -  °F | °C
As of 5:53 PM on Monday 22 Dec 2014 (Local Time) from KSLC Reporting Station
Broken Clouds Broken Clouds  
Wind Chill: 31°   Ceiling: 9000
Heat Index: 41°   Visibility: 10mi
Dew Point: 28°   Wind: 22mph
Humidity: 60%   Direction: 310°NW
Pressure: 30.04"   Gusts: NA
Location:  40.5393°N, 112.353°W
Report Text: KSLC 230053Z 31019KT 10SM FEW042 SCT060 BKN090 05/M02 A3004 RMK AO2 PK WND 30028/0015 SLP169 T00501022
Loading
Personal Weather Stations






























Interactive Weather Map New forecast layout! Learn more

10-Day Weather Forecast

Advertisements
Track Severe Weather on mobile